sensor_id;sensor_type;location;lat;lon;timestamp;P1;durP1;ratioP1;P2;durP2;ratioP2
10469;SDS011;5282;47.052;15.458;2023-12-04T00:01:44;4.80;;;4.40;;
10469;SDS011;5282;47.052;15.458;2023-12-04T00:04:12;6.73;;;5.00;;
10469;SDS011;5282;47.052;15.458;2023-12-04T00:06:41;5.33;;;4.93;;
10469;SDS011;5282;47.052;15.458;2023-12-04T00:09:08;6.20;;;4.63;;
10469;SDS011;5282;47.052;15.458;2023-12-04T00:11:38;5.23;;;4.50;;
10469;SDS011;5282;47.052;15.458;2023-12-04T00:14:05;5.20;;;4.80;;
10469;SDS011;5282;47.052;15.458;2023-12-04T00:16:35;5.97;;;5.00;;
10469;SDS011;5282;47.052;15.458;2023-12-04T00:19:02;5.50;;;4.80;;
10469;SDS011;5282;47.052;15.458;2023-12-04T00:21:29;5.30;;;4.80;;
10469;SDS011;5282;47.052;15.458;2023-12-04T00:23:57;5.20;;;4.70;;
10469;SDS011;5282;47.052;15.458;2023-12-04T00:26:24;9.00;;;6.57;;
10469;SDS011;5282;47.052;15.458;2023-12-04T00:28:52;11.47;;;8.20;;
10469;SDS011;5282;47.052;15.458;2023-12-04T00:31:19;12.23;;;8.73;;
10469;SDS011;5282;47.052;15.458;2023-12-04T00:33:47;11.13;;;8.47;;
10469;SDS011;5282;47.052;15.458;2023-12-04T00:36:15;11.90;;;8.97;;
10469;SDS011;5282;47.052;15.458;2023-12-04T00:38:44;14.33;;;9.87;;
10469;SDS011;5282;47.052;15.458;2023-12-04T00:41:12;14.40;;;11.10;;
10469;SDS011;5282;47.052;15.458;2023-12-04T00:43:39;16.03;;;10.13;;
10469;SDS011;5282;47.052;15.458;2023-12-04T00:46:07;15.70;;;10.97;;
10469;SDS011;5282;47.052;15.458;2023-12-04T00:48:34;15.07;;;11.00;;
10469;SDS011;5282;47.052;15.458;2023-12-04T00:51:01;15.87;;;10.87;;
10469;SDS011;5282;47.052;15.458;2023-12-04T00:53:29;14.87;;;11.03;;
10469;SDS011;5282;47.052;15.458;2023-12-04T00:55:56;14.73;;;10.80;;
10469;SDS011;5282;47.052;15.458;2023-12-04T00:58:25;16.47;;;10.50;;
10469;SDS011;5282;47.052;15.458;2023-12-04T01:00:53;16.10;;;10.67;;
10469;SDS011;5282;47.052;15.458;2023-12-04T01:03:22;12.47;;;10.53;;
10469;SDS011;5282;47.052;15.458;2023-12-04T01:05:52;18.10;;;10.37;;
10469;SDS011;5282;47.052;15.458;2023-12-04T01:08:19;17.90;;;10.73;;
10469;SDS011;5282;47.052;15.458;2023-12-04T01:10:47;14.33;;;10.10;;
10469;SDS011;5282;47.052;15.458;2023-12-04T01:13:14;14.73;;;9.53;;
10469;SDS011;5282;47.052;15.458;2023-12-04T01:15:43;13.33;;;9.77;;
10469;SDS011;5282;47.052;15.458;2023-12-04T01:18:12;13.30;;;9.43;;
10469;SDS011;5282;47.052;15.458;2023-12-04T01:20:40;13.63;;;9.27;;
10469;SDS011;5282;47.052;15.458;2023-12-04T01:23:07;9.73;;;7.50;;
10469;SDS011;5282;47.052;15.458;2023-12-04T01:25:34;8.77;;;6.53;;
10469;SDS011;5282;47.052;15.458;2023-12-04T01:28:03;8.53;;;5.97;;
10469;SDS011;5282;47.052;15.458;2023-12-04T01:30:30;6.47;;;5.63;;
10469;SDS011;5282;47.052;15.458;2023-12-04T01:32:58;7.20;;;6.20;;
10469;SDS011;5282;47.052;15.458;2023-12-04T01:35:25;10.70;;;7.97;;
10469;SDS011;5282;47.052;15.458;2023-12-04T01:37:52;13.23;;;8.07;;
10469;SDS011;5282;47.052;15.458;2023-12-04T01:40:19;13.17;;;6.93;;
10469;SDS011;5282;47.052;15.458;2023-12-04T01:42:48;7.20;;;6.50;;
10469;SDS011;5282;47.052;15.458;2023-12-04T01:45:15;12.77;;;7.13;;
10469;SDS011;5282;47.052;15.458;2023-12-04T01:47:43;10.77;;;7.70;;
10469;SDS011;5282;47.052;15.458;2023-12-04T01:50:12;11.47;;;7.67;;
10469;SDS011;5282;47.052;15.458;2023-12-04T01:52:42;9.97;;;8.47;;
10469;SDS011;5282;47.052;15.458;2023-12-04T01:55:09;12.23;;;8.57;;
10469;SDS011;5282;47.052;15.458;2023-12-04T01:57:38;12.63;;;8.27;;
10469;SDS011;5282;47.052;15.458;2023-12-04T02:00:07;12.13;;;8.60;;
10469;SDS011;5282;47.052;15.458;2023-12-04T02:02:37;11.37;;;7.93;;
10469;SDS011;5282;47.052;15.458;2023-12-04T02:05:04;9.43;;;8.07;;
10469;SDS011;5282;47.052;15.458;2023-12-04T02:07:35;12.67;;;7.97;;
10469;SDS011;5282;47.052;15.458;2023-12-04T02:10:02;10.17;;;8.27;;
10469;SDS011;5282;47.052;15.458;2023-12-04T02:12:29;10.67;;;7.70;;
10469;SDS011;5282;47.052;15.458;2023-12-04T02:14:56;8.30;;;7.33;;
10469;SDS011;5282;47.052;15.458;2023-12-04T02:17:24;10.97;;;8.07;;
10469;SDS011;5282;47.052;15.458;2023-12-04T02:19:52;12.43;;;8.17;;
10469;SDS011;5282;47.052;15.458;2023-12-04T02:22:20;9.30;;;7.97;;
10469;SDS011;5282;47.052;15.458;2023-12-04T02:24:48;10.80;;;7.83;;
10469;SDS011;5282;47.052;15.458;2023-12-04T02:27:17;10.00;;;7.80;;
10469;SDS011;5282;47.052;15.458;2023-12-04T02:29:48;8.57;;;7.50;;
10469;SDS011;5282;47.052;15.458;2023-12-04T02:32:19;9.03;;;7.60;;
10469;SDS011;5282;47.052;15.458;2023-12-04T02:34:47;8.33;;;7.57;;
10469;SDS011;5282;47.052;15.458;2023-12-04T02:37:16;8.60;;;7.43;;
10469;SDS011;5282;47.052;15.458;2023-12-04T02:39:44;8.83;;;7.07;;
10469;SDS011;5282;47.052;15.458;2023-12-04T02:42:13;9.60;;;7.20;;
10469;SDS011;5282;47.052;15.458;2023-12-04T02:44:42;8.53;;;7.57;;
10469;SDS011;5282;47.052;15.458;2023-12-04T02:47:10;8.83;;;7.23;;
10469;SDS011;5282;47.052;15.458;2023-12-04T02:49:38;8.20;;;6.93;;
10469;SDS011;5282;47.052;15.458;2023-12-04T02:52:05;8.67;;;7.63;;
10469;SDS011;5282;47.052;15.458;2023-12-04T02:54:32;9.30;;;7.37;;
10469;SDS011;5282;47.052;15.458;2023-12-04T02:56:59;10.73;;;7.97;;
10469;SDS011;5282;47.052;15.458;2023-12-04T02:59:27;10.40;;;7.80;;
10469;SDS011;5282;47.052;15.458;2023-12-04T03:01:54;9.03;;;6.97;;
10469;SDS011;5282;47.052;15.458;2023-12-04T03:04:21;7.93;;;7.13;;
10469;SDS011;5282;47.052;15.458;2023-12-04T03:06:48;9.53;;;7.73;;
10469;SDS011;5282;47.052;15.458;2023-12-04T03:09:15;10.23;;;7.40;;
10469;SDS011;5282;47.052;15.458;2023-12-04T03:11:42;10.37;;;7.50;;
10469;SDS011;5282;47.052;15.458;2023-12-04T03:14:10;9.63;;;7.20;;
10469;SDS011;5282;47.052;15.458;2023-12-04T03:16:39;9.07;;;7.00;;
10469;SDS011;5282;47.052;15.458;2023-12-04T03:19:08;7.87;;;6.23;;
10469;SDS011;5282;47.052;15.458;2023-12-04T03:21:39;11.20;;;7.10;;
10469;SDS011;5282;47.052;15.458;2023-12-04T03:24:07;9.53;;;6.87;;
10469;SDS011;5282;47.052;15.458;2023-12-04T03:26:35;8.97;;;7.13;;
10469;SDS011;5282;47.052;15.458;2023-12-04T03:29:03;9.23;;;7.47;;
10469;SDS011;5282;47.052;15.458;2023-12-04T03:31:30;8.27;;;6.93;;
10469;SDS011;5282;47.052;15.458;2023-12-04T03:33:58;10.63;;;7.37;;
10469;SDS011;5282;47.052;15.458;2023-12-04T03:36:25;11.63;;;7.17;;
10469;SDS011;5282;47.052;15.458;2023-12-04T03:38:52;7.23;;;6.57;;
10469;SDS011;5282;47.052;15.458;2023-12-04T03:41:20;8.30;;;7.13;;
10469;SDS011;5282;47.052;15.458;2023-12-04T03:43:48;9.97;;;7.23;;
10469;SDS011;5282;47.052;15.458;2023-12-04T03:46:16;7.70;;;6.87;;
10469;SDS011;5282;47.052;15.458;2023-12-04T03:48:43;9.73;;;7.00;;
10469;SDS011;5282;47.052;15.458;2023-12-04T03:51:11;7.60;;;6.80;;
10469;SDS011;5282;47.052;15.458;2023-12-04T03:53:39;8.03;;;7.13;;
10469;SDS011;5282;47.052;15.458;2023-12-04T03:56:06;10.23;;;6.90;;
10469;SDS011;5282;47.052;15.458;2023-12-04T03:58:34;7.23;;;6.10;;
10469;SDS011;5282;47.052;15.458;2023-12-04T04:01:02;7.67;;;6.53;;
10469;SDS011;5282;47.052;15.458;2023-12-04T04:03:41;7.27;;;5.97;;
10469;SDS011;5282;47.052;15.458;2023-12-04T04:06:09;8.13;;;6.50;;
10469;SDS011;5282;47.052;15.458;2023-12-04T04:08:38;7.73;;;6.30;;
10469;SDS011;5282;47.052;15.458;2023-12-04T04:11:06;9.27;;;6.63;;
10469;SDS011;5282;47.052;15.458;2023-12-04T04:13:33;8.97;;;5.83;;
10469;SDS011;5282;47.052;15.458;2023-12-04T04:16:00;11.23;;;5.87;;
10469;SDS011;5282;47.052;15.458;2023-12-04T04:18:28;5.80;;;5.20;;
10469;SDS011;5282;47.052;15.458;2023-12-04T04:20:57;7.60;;;5.73;;
10469;SDS011;5282;47.052;15.458;2023-12-04T04:23:26;7.07;;;5.53;;
10469;SDS011;5282;47.052;15.458;2023-12-04T04:25:55;7.37;;;5.63;;
10469;SDS011;5282;47.052;15.458;2023-12-04T04:28:22;8.03;;;5.20;;
10469;SDS011;5282;47.052;15.458;2023-12-04T04:30:48;5.50;;;4.93;;
10469;SDS011;5282;47.052;15.458;2023-12-04T04:33:16;5.83;;;5.33;;
10469;SDS011;5282;47.052;15.458;2023-12-04T04:35:44;6.00;;;5.40;;
10469;SDS011;5282;47.052;15.458;2023-12-04T04:38:11;6.73;;;5.97;;
10469;SDS011;5282;47.052;15.458;2023-12-04T04:40:38;6.33;;;5.20;;
10469;SDS011;5282;47.052;15.458;2023-12-04T04:43:10;6.20;;;5.53;;
10469;SDS011;5282;47.052;15.458;2023-12-04T04:45:37;7.00;;;5.40;;
10469;SDS011;5282;47.052;15.458;2023-12-04T04:48:04;5.67;;;5.10;;
10469;SDS011;5282;47.052;15.458;2023-12-04T04:50:31;8.43;;;6.17;;
10469;SDS011;5282;47.052;15.458;2023-12-04T04:52:58;6.10;;;5.50;;
10469;SDS011;5282;47.052;15.458;2023-12-04T04:55:25;7.30;;;6.07;;
10469;SDS011;5282;47.052;15.458;2023-12-04T04:57:53;8.80;;;6.03;;
10469;SDS011;5282;47.052;15.458;2023-12-04T05:00:23;9.40;;;6.63;;
10469;SDS011;5282;47.052;15.458;2023-12-04T05:02:50;8.43;;;6.50;;
10469;SDS011;5282;47.052;15.458;2023-12-04T05:05:18;8.30;;;6.40;;
10469;SDS011;5282;47.052;15.458;2023-12-04T05:07:44;6.20;;;5.60;;
10469;SDS011;5282;47.052;15.458;2023-12-04T05:10:11;8.67;;;5.87;;
10469;SDS011;5282;47.052;15.458;2023-12-04T05:12:39;9.90;;;5.97;;
10469;SDS011;5282;47.052;15.458;2023-12-04T05:15:06;8.73;;;6.90;;
10469;SDS011;5282;47.052;15.458;2023-12-04T05:17:36;7.50;;;6.43;;
10469;SDS011;5282;47.052;15.458;2023-12-04T05:20:03;7.73;;;6.73;;
10469;SDS011;5282;47.052;15.458;2023-12-04T05:22:32;9.03;;;6.90;;
10469;SDS011;5282;47.052;15.458;2023-12-04T05:24:59;7.10;;;6.33;;
10469;SDS011;5282;47.052;15.458;2023-12-04T05:27:26;9.20;;;6.33;;
10469;SDS011;5282;47.052;15.458;2023-12-04T05:29:55;7.07;;;6.37;;
10469;SDS011;5282;47.052;15.458;2023-12-04T05:32:22;7.50;;;5.83;;
10469;SDS011;5282;47.052;15.458;2023-12-04T05:34:51;9.17;;;6.83;;
10469;SDS011;5282;47.052;15.458;2023-12-04T05:37:18;7.77;;;7.00;;
10469;SDS011;5282;47.052;15.458;2023-12-04T05:39:46;12.13;;;7.40;;
10469;SDS011;5282;47.052;15.458;2023-12-04T05:42:13;8.47;;;7.27;;
10469;SDS011;5282;47.052;15.458;2023-12-04T05:44:41;9.57;;;7.57;;
10469;SDS011;5282;47.052;15.458;2023-12-04T05:47:09;10.03;;;7.17;;
10469;SDS011;5282;47.052;15.458;2023-12-04T05:49:35;9.70;;;7.40;;
10469;SDS011;5282;47.052;15.458;2023-12-04T05:52:04;9.93;;;7.63;;
10469;SDS011;5282;47.052;15.458;2023-12-04T05:54:32;10.43;;;7.23;;
10469;SDS011;5282;47.052;15.458;2023-12-04T05:57:00;9.07;;;7.53;;
10469;SDS011;5282;47.052;15.458;2023-12-04T05:59:27;10.50;;;7.03;;
10469;SDS011;5282;47.052;15.458;2023-12-04T06:01:54;11.17;;;8.10;;
10469;SDS011;5282;47.052;15.458;2023-12-04T06:04:21;13.27;;;7.80;;
10469;SDS011;5282;47.052;15.458;2023-12-04T06:06:47;10.47;;;7.57;;
10469;SDS011;5282;47.052;15.458;2023-12-04T06:09:16;7.83;;;7.03;;
10469;SDS011;5282;47.052;15.458;2023-12-04T06:11:43;7.17;;;6.43;;
10469;SDS011;5282;47.052;15.458;2023-12-04T06:14:10;10.33;;;7.17;;
10469;SDS011;5282;47.052;15.458;2023-12-04T06:16:37;9.63;;;6.63;;
10469;SDS011;5282;47.052;15.458;2023-12-04T06:19:04;10.00;;;7.80;;
10469;SDS011;5282;47.052;15.458;2023-12-04T06:21:31;11.00;;;7.50;;
10469;SDS011;5282;47.052;15.458;2023-12-04T06:23:58;8.20;;;7.27;;
10469;SDS011;5282;47.052;15.458;2023-12-04T06:26:27;10.53;;;6.87;;
10469;SDS011;5282;47.052;15.458;2023-12-04T06:28:56;9.67;;;8.00;;
10469;SDS011;5282;47.052;15.458;2023-12-04T06:31:23;10.60;;;7.50;;
10469;SDS011;5282;47.052;15.458;2023-12-04T06:33:51;14.03;;;8.33;;
10469;SDS011;5282;47.052;15.458;2023-12-04T06:36:18;9.70;;;8.70;;
10469;SDS011;5282;47.052;15.458;2023-12-04T06:38:46;13.23;;;8.40;;
10469;SDS011;5282;47.052;15.458;2023-12-04T06:41:17;10.03;;;8.30;;
10469;SDS011;5282;47.052;15.458;2023-12-04T06:43:48;14.17;;;9.00;;
10469;SDS011;5282;47.052;15.458;2023-12-04T06:46:15;11.40;;;8.87;;
10469;SDS011;5282;47.052;15.458;2023-12-04T06:48:45;11.27;;;8.33;;
10469;SDS011;5282;47.052;15.458;2023-12-04T06:51:14;14.00;;;8.70;;
10469;SDS011;5282;47.052;15.458;2023-12-04T06:53:41;10.13;;;7.87;;
10469;SDS011;5282;47.052;15.458;2023-12-04T06:56:09;9.90;;;7.57;;
10469;SDS011;5282;47.052;15.458;2023-12-04T06:58:36;9.20;;;7.87;;
10469;SDS011;5282;47.052;15.458;2023-12-04T07:01:04;8.20;;;7.37;;
10469;SDS011;5282;47.052;15.458;2023-12-04T07:03:31;10.77;;;7.73;;
10469;SDS011;5282;47.052;15.458;2023-12-04T07:05:58;9.37;;;7.20;;
10469;SDS011;5282;47.052;15.458;2023-12-04T07:08:25;9.27;;;6.97;;
10469;SDS011;5282;47.052;15.458;2023-12-04T07:10:52;8.33;;;7.00;;
10469;SDS011;5282;47.052;15.458;2023-12-04T07:13:19;8.00;;;7.00;;
10469;SDS011;5282;47.052;15.458;2023-12-04T07:15:46;11.10;;;7.40;;
10469;SDS011;5282;47.052;15.458;2023-12-04T07:18:15;9.27;;;7.80;;
10469;SDS011;5282;47.052;15.458;2023-12-04T07:20:41;9.73;;;7.77;;
10469;SDS011;5282;47.052;15.458;2023-12-04T07:23:08;10.17;;;8.40;;
10469;SDS011;5282;47.052;15.458;2023-12-04T07:25:35;10.10;;;7.50;;
10469;SDS011;5282;47.052;15.458;2023-12-04T07:28:02;13.43;;;8.93;;
10469;SDS011;5282;47.052;15.458;2023-12-04T07:30:29;13.23;;;8.67;;
10469;SDS011;5282;47.052;15.458;2023-12-04T07:32:57;11.93;;;9.20;;
10469;SDS011;5282;47.052;15.458;2023-12-04T07:35:26;14.80;;;9.53;;
10469;SDS011;5282;47.052;15.458;2023-12-04T07:37:53;10.60;;;8.83;;
10469;SDS011;5282;47.052;15.458;2023-12-04T07:40:19;13.30;;;8.93;;
10469;SDS011;5282;47.052;15.458;2023-12-04T07:42:48;12.80;;;8.30;;
10469;SDS011;5282;47.052;15.458;2023-12-04T07:45:15;10.17;;;8.53;;
10469;SDS011;5282;47.052;15.458;2023-12-04T07:47:42;10.43;;;8.40;;
10469;SDS011;5282;47.052;15.458;2023-12-04T07:50:09;10.17;;;7.93;;
10469;SDS011;5282;47.052;15.458;2023-12-04T07:52:38;9.90;;;8.20;;
10469;SDS011;5282;47.052;15.458;2023-12-04T07:55:05;11.27;;;8.47;;
10469;SDS011;5282;47.052;15.458;2023-12-04T07:57:33;8.33;;;7.47;;
10469;SDS011;5282;47.052;15.458;2023-12-04T08:00:00;10.67;;;8.73;;
10469;SDS011;5282;47.052;15.458;2023-12-04T08:02:27;9.83;;;7.77;;
10469;SDS011;5282;47.052;15.458;2023-12-04T08:04:54;16.50;;;9.70;;
10469;SDS011;5282;47.052;15.458;2023-12-04T08:07:21;13.53;;;9.67;;
10469;SDS011;5282;47.052;15.458;2023-12-04T08:09:49;12.50;;;9.63;;
10469;SDS011;5282;47.052;15.458;2023-12-04T08:12:16;14.77;;;9.80;;
10469;SDS011;5282;47.052;15.458;2023-12-04T08:14:43;14.43;;;9.10;;
10469;SDS011;5282;47.052;15.458;2023-12-04T08:17:12;16.77;;;10.73;;
10469;SDS011;5282;47.052;15.458;2023-12-04T08:19:38;19.37;;;11.30;;
10469;SDS011;5282;47.052;15.458;2023-12-04T08:22:05;12.63;;;9.80;;
10469;SDS011;5282;47.052;15.458;2023-12-04T08:24:32;14.70;;;9.80;;
10469;SDS011;5282;47.052;15.458;2023-12-04T08:27:00;15.10;;;10.60;;
10469;SDS011;5282;47.052;15.458;2023-12-04T08:29:28;13.47;;;10.33;;
10469;SDS011;5282;47.052;15.458;2023-12-04T08:31:54;11.53;;;9.43;;
10469;SDS011;5282;47.052;15.458;2023-12-04T08:34:21;14.67;;;9.57;;
10469;SDS011;5282;47.052;15.458;2023-12-04T08:36:48;14.03;;;10.23;;
10469;SDS011;5282;47.052;15.458;2023-12-04T08:39:15;15.43;;;9.90;;
10469;SDS011;5282;47.052;15.458;2023-12-04T08:41:44;12.40;;;10.27;;
10469;SDS011;5282;47.052;15.458;2023-12-04T08:44:13;10.63;;;9.30;;
10469;SDS011;5282;47.052;15.458;2023-12-04T08:46:40;12.00;;;8.67;;
10469;SDS011;5282;47.052;15.458;2023-12-04T08:49:08;12.50;;;8.93;;
10469;SDS011;5282;47.052;15.458;2023-12-04T08:51:35;11.37;;;8.80;;
10469;SDS011;5282;47.052;15.458;2023-12-04T08:54:02;11.07;;;9.13;;
10469;SDS011;5282;47.052;15.458;2023-12-04T08:56:29;14.37;;;9.37;;
10469;SDS011;5282;47.052;15.458;2023-12-04T08:58:56;9.97;;;8.47;;
10469;SDS011;5282;47.052;15.458;2023-12-04T09:01:28;12.77;;;8.57;;
10469;SDS011;5282;47.052;15.458;2023-12-04T09:03:55;11.40;;;9.03;;
10469;SDS011;5282;47.052;15.458;2023-12-04T09:06:22;11.20;;;7.90;;
10469;SDS011;5282;47.052;15.458;2023-12-04T09:08:50;9.63;;;8.40;;
10469;SDS011;5282;47.052;15.458;2023-12-04T09:11:17;11.00;;;8.30;;
10469;SDS011;5282;47.052;15.458;2023-12-04T09:13:44;10.20;;;7.90;;
10469;SDS011;5282;47.052;15.458;2023-12-04T09:16:11;10.87;;;8.57;;
10469;SDS011;5282;47.052;15.458;2023-12-04T09:18:40;8.63;;;7.77;;
10469;SDS011;5282;47.052;15.458;2023-12-04T09:21:07;10.60;;;7.90;;
10469;SDS011;5282;47.052;15.458;2023-12-04T09:23:34;9.23;;;7.93;;
10469;SDS011;5282;47.052;15.458;2023-12-04T09:26:03;9.10;;;8.00;;
10469;SDS011;5282;47.052;15.458;2023-12-04T09:28:30;8.37;;;7.57;;
10469;SDS011;5282;47.052;15.458;2023-12-04T09:30:57;10.87;;;8.13;;
10469;SDS011;5282;47.052;15.458;2023-12-04T09:33:24;8.63;;;7.70;;
10469;SDS011;5282;47.052;15.458;2023-12-04T09:35:53;11.97;;;8.50;;
10469;SDS011;5282;47.052;15.458;2023-12-04T09:38:20;9.63;;;8.03;;
10469;SDS011;5282;47.052;15.458;2023-12-04T09:40:47;10.07;;;8.10;;
10469;SDS011;5282;47.052;15.458;2023-12-04T09:43:16;9.40;;;8.50;;
10469;SDS011;5282;47.052;15.458;2023-12-04T09:45:44;10.93;;;8.33;;
10469;SDS011;5282;47.052;15.458;2023-12-04T09:48:11;10.20;;;8.13;;
10469;SDS011;5282;47.052;15.458;2023-12-04T09:50:38;9.67;;;8.30;;
10469;SDS011;5282;47.052;15.458;2023-12-04T09:53:08;9.63;;;7.83;;
10469;SDS011;5282;47.052;15.458;2023-12-04T09:55:37;11.43;;;8.27;;
10469;SDS011;5282;47.052;15.458;2023-12-04T09:58:04;8.87;;;7.80;;
10469;SDS011;5282;47.052;15.458;2023-12-04T10:00:32;8.47;;;7.73;;
10469;SDS011;5282;47.052;15.458;2023-12-04T10:02:59;9.47;;;7.87;;
10469;SDS011;5282;47.052;15.458;2023-12-04T10:05:29;8.37;;;7.57;;
10469;SDS011;5282;47.052;15.458;2023-12-04T10:07:56;8.97;;;8.07;;
10469;SDS011;5282;47.052;15.458;2023-12-04T10:10:24;8.40;;;7.60;;
10469;SDS011;5282;47.052;15.458;2023-12-04T10:12:51;8.47;;;7.57;;
10469;SDS011;5282;47.052;15.458;2023-12-04T10:15:18;9.80;;;8.23;;
10469;SDS011;5282;47.052;15.458;2023-12-04T10:17:45;9.83;;;8.33;;
10469;SDS011;5282;47.052;15.458;2023-12-04T10:20:13;11.00;;;9.03;;
10469;SDS011;5282;47.052;15.458;2023-12-04T10:22:52;10.97;;;8.57;;
10469;SDS011;5282;47.052;15.458;2023-12-04T10:25:20;8.97;;;7.67;;
10469;SDS011;5282;47.052;15.458;2023-12-04T10:27:53;10.83;;;7.77;;
10469;SDS011;5282;47.052;15.458;2023-12-04T10:30:25;8.20;;;7.50;;
10469;SDS011;5282;47.052;15.458;2023-12-04T10:32:56;7.10;;;6.53;;
10469;SDS011;5282;47.052;15.458;2023-12-04T10:35:26;7.47;;;6.77;;
10469;SDS011;5282;47.052;15.458;2023-12-04T10:37:59;8.17;;;6.63;;
10469;SDS011;5282;47.052;15.458;2023-12-04T10:40:27;7.80;;;7.10;;
10469;SDS011;5282;47.052;15.458;2023-12-04T10:43:11;7.37;;;6.77;;
10469;SDS011;5282;47.052;15.458;2023-12-04T10:45:39;6.57;;;5.97;;
10469;SDS011;5282;47.052;15.458;2023-12-04T10:48:07;6.93;;;6.33;;
10469;SDS011;5282;47.052;15.458;2023-12-04T10:50:35;7.50;;;6.43;;
10469;SDS011;5282;47.052;15.458;2023-12-04T10:53:06;10.13;;;8.00;;
10469;SDS011;5282;47.052;15.458;2023-12-04T10:55:34;7.73;;;7.03;;
10469;SDS011;5282;47.052;15.458;2023-12-04T10:58:08;8.10;;;7.30;;
10469;SDS011;5282;47.052;15.458;2023-12-04T11:00:39;7.73;;;7.07;;
10469;SDS011;5282;47.052;15.458;2023-12-04T11:03:08;7.87;;;7.17;;
10469;SDS011;5282;47.052;15.458;2023-12-04T11:05:39;7.10;;;6.40;;
10469;SDS011;5282;47.052;15.458;2023-12-04T11:08:08;7.40;;;6.80;;
10469;SDS011;5282;47.052;15.458;2023-12-04T11:10:40;7.07;;;6.43;;
10469;SDS011;5282;47.052;15.458;2023-12-04T11:13:16;6.90;;;6.30;;
10469;SDS011;5282;47.052;15.458;2023-12-04T11:15:49;7.47;;;6.77;;
10469;SDS011;5282;47.052;15.458;2023-12-04T11:18:20;9.33;;;6.57;;
10469;SDS011;5282;47.052;15.458;2023-12-04T11:20:55;7.70;;;6.23;;
10469;SDS011;5282;47.052;15.458;2023-12-04T11:23:25;6.37;;;5.83;;
10469;SDS011;5282;47.052;15.458;2023-12-04T11:25:53;6.93;;;6.27;;
10469;SDS011;5282;47.052;15.458;2023-12-04T11:28:21;6.73;;;6.20;;
10469;SDS011;5282;47.052;15.458;2023-12-04T11:30:49;7.70;;;7.00;;
10469;SDS011;5282;47.052;15.458;2023-12-04T11:33:18;9.30;;;7.77;;
10469;SDS011;5282;47.052;15.458;2023-12-04T11:35:45;9.13;;;8.23;;
10469;SDS011;5282;47.052;15.458;2023-12-04T11:38:13;10.43;;;8.17;;
10469;SDS011;5282;47.052;15.458;2023-12-04T11:40:41;12.50;;;8.23;;
10469;SDS011;5282;47.052;15.458;2023-12-04T11:43:21;8.67;;;7.87;;
10469;SDS011;5282;47.052;15.458;2023-12-04T11:45:50;8.27;;;7.47;;
10469;SDS011;5282;47.052;15.458;2023-12-04T11:48:17;7.43;;;6.73;;
10469;SDS011;5282;47.052;15.458;2023-12-04T11:50:49;8.97;;;8.13;;
10469;SDS011;5282;47.052;15.458;2023-12-04T11:53:38;8.40;;;6.50;;
10469;SDS011;5282;47.052;15.458;2023-12-04T11:56:09;7.23;;;6.60;;
10469;SDS011;5282;47.052;15.458;2023-12-04T11:58:41;11.80;;;6.73;;
10469;SDS011;5282;47.052;15.458;2023-12-04T12:01:10;7.70;;;6.70;;
10469;SDS011;5282;47.052;15.458;2023-12-04T12:03:38;8.40;;;7.03;;
10469;SDS011;5282;47.052;15.458;2023-12-04T12:06:05;6.90;;;6.23;;
10469;SDS011;5282;47.052;15.458;2023-12-04T12:08:33;6.73;;;6.10;;
10469;SDS011;5282;47.052;15.458;2023-12-04T12:11:00;6.00;;;5.53;;
10469;SDS011;5282;47.052;15.458;2023-12-04T12:13:28;6.40;;;5.80;;
10469;SDS011;5282;47.052;15.458;2023-12-04T12:15:55;6.27;;;5.63;;
10469;SDS011;5282;47.052;15.458;2023-12-04T12:18:25;5.77;;;5.10;;
10469;SDS011;5282;47.052;15.458;2023-12-04T12:20:54;6.63;;;5.33;;
10469;SDS011;5282;47.052;15.458;2023-12-04T12:23:21;6.37;;;5.87;;
10469;SDS011;5282;47.052;15.458;2023-12-04T12:25:48;7.03;;;5.87;;
10469;SDS011;5282;47.052;15.458;2023-12-04T12:28:15;6.17;;;5.57;;
10469;SDS011;5282;47.052;15.458;2023-12-04T12:30:42;8.10;;;6.73;;
10469;SDS011;5282;47.052;15.458;2023-12-04T12:33:12;6.77;;;5.93;;
10469;SDS011;5282;47.052;15.458;2023-12-04T12:35:40;7.63;;;5.67;;
10469;SDS011;5282;47.052;15.458;2023-12-04T12:38:07;5.87;;;5.37;;
10469;SDS011;5282;47.052;15.458;2023-12-04T12:40:35;5.33;;;4.93;;
10469;SDS011;5282;47.052;15.458;2023-12-04T12:43:04;6.00;;;5.20;;
10469;SDS011;5282;47.052;15.458;2023-12-04T12:45:38;5.40;;;4.90;;
10469;SDS011;5282;47.052;15.458;2023-12-04T12:48:05;6.57;;;4.97;;
10469;SDS011;5282;47.052;15.458;2023-12-04T12:50:32;6.80;;;5.57;;
10469;SDS011;5282;47.052;15.458;2023-12-04T12:53:02;6.13;;;5.63;;
10469;SDS011;5282;47.052;15.458;2023-12-04T12:55:29;8.90;;;6.03;;
10469;SDS011;5282;47.052;15.458;2023-12-04T12:57:56;6.23;;;5.50;;
10469;SDS011;5282;47.052;15.458;2023-12-04T13:00:23;6.40;;;5.83;;
10469;SDS011;5282;47.052;15.458;2023-12-04T13:02:52;5.93;;;5.47;;
10469;SDS011;5282;47.052;15.458;2023-12-04T13:05:19;6.07;;;5.57;;
10469;SDS011;5282;47.052;15.458;2023-12-04T13:07:46;5.80;;;5.40;;
10469;SDS011;5282;47.052;15.458;2023-12-04T13:10:15;7.03;;;5.23;;
10469;SDS011;5282;47.052;15.458;2023-12-04T13:12:42;7.40;;;5.57;;
10469;SDS011;5282;47.052;15.458;2023-12-04T13:15:09;6.73;;;5.60;;
10469;SDS011;5282;47.052;15.458;2023-12-04T13:17:36;6.00;;;5.27;;
10469;SDS011;5282;47.052;15.458;2023-12-04T13:20:04;12.00;;;5.97;;
10469;SDS011;5282;47.052;15.458;2023-12-04T13:22:34;5.87;;;5.37;;
10469;SDS011;5282;47.052;15.458;2023-12-04T13:25:01;6.90;;;6.30;;
10469;SDS011;5282;47.052;15.458;2023-12-04T13:27:33;6.40;;;5.77;;
10469;SDS011;5282;47.052;15.458;2023-12-04T13:30:01;8.47;;;6.00;;
10469;SDS011;5282;47.052;15.458;2023-12-04T13:32:28;6.10;;;5.50;;
10469;SDS011;5282;47.052;15.458;2023-12-04T13:34:55;6.27;;;5.70;;
10469;SDS011;5282;47.052;15.458;2023-12-04T13:37:22;10.30;;;6.30;;
10469;SDS011;5282;47.052;15.458;2023-12-04T13:39:48;7.10;;;6.40;;
10469;SDS011;5282;47.052;15.458;2023-12-04T13:42:22;6.60;;;5.80;;
10469;SDS011;5282;47.052;15.458;2023-12-04T13:45:09;7.23;;;6.20;;
10469;SDS011;5282;47.052;15.458;2023-12-04T13:47:36;6.87;;;5.90;;
10469;SDS011;5282;47.052;15.458;2023-12-04T13:50:05;6.17;;;5.67;;
10469;SDS011;5282;47.052;15.458;2023-12-04T13:52:34;8.43;;;6.37;;
10469;SDS011;5282;47.052;15.458;2023-12-04T13:55:01;6.67;;;6.07;;
10469;SDS011;5282;47.052;15.458;2023-12-04T13:57:37;6.70;;;6.13;;
10469;SDS011;5282;47.052;15.458;2023-12-04T14:00:21;8.27;;;6.57;;
10469;SDS011;5282;47.052;15.458;2023-12-04T14:02:48;6.33;;;5.73;;
10469;SDS011;5282;47.052;15.458;2023-12-04T14:05:18;6.53;;;5.93;;
10469;SDS011;5282;47.052;15.458;2023-12-04T14:07:47;6.87;;;6.17;;
10469;SDS011;5282;47.052;15.458;2023-12-04T14:10:14;8.37;;;6.57;;
10469;SDS011;5282;47.052;15.458;2023-12-04T14:12:41;7.00;;;6.27;;
10469;SDS011;5282;47.052;15.458;2023-12-04T14:15:08;6.33;;;5.83;;
10469;SDS011;5282;47.052;15.458;2023-12-04T14:17:37;6.87;;;6.27;;
10469;SDS011;5282;47.052;15.458;2023-12-04T14:20:05;7.37;;;6.67;;
10469;SDS011;5282;47.052;15.458;2023-12-04T14:22:38;8.10;;;6.53;;
10469;SDS011;5282;47.052;15.458;2023-12-04T14:25:06;7.47;;;6.77;;
10469;SDS011;5282;47.052;15.458;2023-12-04T14:27:33;8.87;;;6.97;;
10469;SDS011;5282;47.052;15.458;2023-12-04T14:30:01;7.67;;;5.97;;
10469;SDS011;5282;47.052;15.458;2023-12-04T14:32:29;6.47;;;5.97;;
10469;SDS011;5282;47.052;15.458;2023-12-04T14:34:57;6.70;;;6.07;;
10469;SDS011;5282;47.052;15.458;2023-12-04T14:37:24;7.10;;;6.40;;
10469;SDS011;5282;47.052;15.458;2023-12-04T14:39:51;8.07;;;6.57;;
10469;SDS011;5282;47.052;15.458;2023-12-04T14:42:17;8.27;;;6.97;;
10469;SDS011;5282;47.052;15.458;2023-12-04T14:44:44;7.20;;;6.50;;
10469;SDS011;5282;47.052;15.458;2023-12-04T14:47:11;7.13;;;6.43;;
10469;SDS011;5282;47.052;15.458;2023-12-04T14:49:38;8.33;;;6.30;;